Time;durP1;ratioP1;P1;durP2;ratioP2;P2;SDS_P1;SDS_P2;PMS_P1;PMS_P2;Temp;Humidity;BMP_temperature;BMP_pressure;BME280_temperature;BME280_humidity;BME280_pressure;Samples;Min_cycle;Max_cycle;Signal;HPM_P1;HPM_P2
2022/10/02 05:48:25;;;;;;;20.02;3.58;;;11.50;99.90;;;;;;4722213;28;20619;-75
2022/10/02 05:50:57;;;;;;;7.75;3.65;;;11.50;99.90;;;;;;5019488;28;20038;-75
2022/10/02 05:53:37;;;;;;;24.83;3.33;;;11.60;99.90;;;;;;5020914;28;20037;-75
2022/10/02 05:56:17;;;;;;;13.00;3.78;;;11.50;99.90;;;;;;5017692;28;20556;-76
2022/10/02 05:59:08;;;;;;;9.70;3.60;;;11.50;99.90;;;;;;5021378;28;20034;-72
2022/10/02 06:01:38;;;;;;;16.92;4.22;;;11.50;99.90;;;;;;5013452;28;20046;-76
2022/10/02 06:04:38;;;;;;;12.77;3.85;;;11.50;99.90;;;;;;5019394;28;20037;-76
2022/10/02 06:07:10;;;;;;;23.05;5.30;;;11.50;99.90;;;;;;5012839;28;20030;-75
2022/10/02 06:09:48;;;;;;;12.15;3.55;;;11.50;99.90;;;;;;5022553;28;20036;-76
2022/10/02 06:12:25;;;;;;;18.33;3.97;;;11.50;99.90;;;;;;5019021;28;20026;-76
2022/10/02 06:15:14;;;;;;;12.50;3.08;;;11.50;99.90;;;;;;5019872;28;20034;-76
2022/10/02 06:17:47;;;;;;;16.10;3.50;;;11.50;99.90;;;;;;5020740;28;20041;-76
2022/10/02 06:20:19;;;;;;;10.80;3.13;;;11.40;99.90;;;;;;5022212;28;20483;-74
2022/10/02 06:22:55;;;;;;;17.88;3.67;;;11.40;99.90;;;;;;5021934;28;20084;-74
2022/10/02 06:25:37;;;;;;;11.82;3.67;;;11.50;99.90;;;;;;5020457;28;20037;-76
2022/10/02 06:28:06;;;;;;;15.90;4.63;;;11.50;99.90;;;;;;5018364;28;20037;-76
2022/10/02 06:30:37;;;;;;;17.13;5.07;;;11.50;99.90;;;;;;5021470;28;20038;-76
2022/10/02 06:33:28;;;;;;;13.65;4.88;;;11.50;99.90;;;;;;5022635;28;20033;-75
2022/10/02 06:36:16;;;;;;;21.85;5.95;;;11.40;99.90;;;;;;5023385;28;20033;-75
2022/10/02 06:39:19;;;;;;;17.70;5.53;;;11.50;99.90;;;;;;5020724;28;20037;-75
2022/10/02 06:41:59;;;;;;;23.27;6.03;;;11.40;99.90;;;;;;5022477;28;20044;-77
2022/10/02 06:44:34;;;;;;;18.20;5.45;;;11.40;99.90;;;;;;5021979;28;20088;-75
2022/10/02 06:47:33;;;;;;;13.88;4.45;;;11.50;99.90;;;;;;5023848;28;20057;-72
2022/10/02 06:50:36;;;;;;;17.52;5.18;;;11.50;99.90;;;;;;5032546;28;20050;-77
2022/10/02 06:53:31;;;;;;;20.63;4.80;;;11.50;99.90;;;;;;5032879;28;20033;-73
2022/10/02 06:56:21;;;;;;;17.33;5.78;;;11.60;99.90;;;;;;5032416;28;20041;-72
2022/10/02 06:59:05;;;;;;;24.05;4.53;;;11.70;99.90;;;;;;5028575;28;20053;-72
2022/10/02 07:02:08;;;;;;;19.55;5.45;;;11.80;99.90;;;;;;5033558;28;20030;-73
2022/10/02 07:04:46;;;;;;;15.88;4.28;;;11.90;99.90;;;;;;5017183;28;20035;-72
2022/10/02 07:07:21;;;;;;;13.02;5.32;;;11.90;99.90;;;;;;5028909;28;20049;-74
2022/10/02 07:10:05;;;;;;;16.02;4.85;;;11.80;99.90;;;;;;5032756;28;20042;-73
2022/10/02 07:13:16;;;;;;;17.70;4.43;;;11.80;99.90;;;;;;5031836;28;20025;-74
2022/10/02 07:16:06;;;;;;;26.00;5.18;;;11.80;99.90;;;;;;5019079;28;20034;-75
2022/10/02 07:18:53;;;;;;;12.65;4.95;;;11.80;99.90;;;;;;5033606;28;20026;-75
2022/10/02 07:21:45;;;;;;;16.90;5.25;;;11.80;99.90;;;;;;5038407;28;20180;-74
2022/10/02 07:24:32;;;;;;;24.42;5.35;;;11.90;99.90;;;;;;5031372;28;20037;-75
2022/10/02 07:27:31;;;;;;;14.13;4.15;;;11.90;99.90;;;;;;5031312;28;20041;-74
2022/10/02 07:30:07;;;;;;;13.90;4.15;;;12.00;99.90;;;;;;5031413;28;20053;-77
2022/10/02 07:32:59;;;;;;;16.65;5.20;;;12.10;99.90;;;;;;5032064;28;20041;-77
2022/10/02 07:35:27;;;;;;;13.68;4.22;;;12.20;99.90;;;;;;5031509;28;20085;-77
2022/10/02 07:38:02;;;;;;;13.93;5.85;;;12.30;99.90;;;;;;5032165;28;20067;-75
2022/10/02 07:40:37;;;;;;;14.23;4.05;;;12.40;99.90;;;;;;5029740;28;20022;-74
2022/10/02 07:43:33;;;;;;;20.38;4.47;;;12.50;99.90;;;;;;5034161;28;20029;-78
2022/10/02 07:46:08;;;;;;;15.85;4.65;;;12.70;99.90;;;;;;5038285;28;20034;-74
2022/10/02 07:48:34;;;;;;;8.52;3.20;;;12.90;99.90;;;;;;5031808;28;20045;-74
2022/10/02 07:51:04;;;;;;;21.92;4.18;;;13.10;99.90;;;;;;5031169;28;20083;-74
2022/10/02 07:53:29;;;;;;;11.00;4.25;;;13.20;99.90;;;;;;5030641;28;20139;-73
2022/10/02 07:55:56;;;;;;;9.70;3.67;;;13.30;99.90;;;;;;5036119;28;20030;-72
2022/10/02 07:58:30;;;;;;;13.10;3.13;;;13.50;99.90;;;;;;5030813;28;20021;-72
2022/10/02 08:01:02;;;;;;;10.85;2.70;;;13.60;99.90;;;;;;5030218;28;20075;-73
2022/10/02 08:03:33;;;;;;;10.30;3.08;;;13.70;99.90;;;;;;5031850;28;20093;-73
2022/10/02 08:06:00;;;;;;;12.25;2.95;;;13.70;99.90;;;;;;5031633;28;20022;-74
2022/10/02 08:08:51;;;;;;;12.13;2.97;;;13.70;99.90;;;;;;5031355;28;20397;-75
2022/10/02 08:11:23;;;;;;;11.55;2.72;;;13.70;99.90;;;;;;5045548;28;20421;-74
2022/10/02 08:13:55;;;;;;;8.57;2.15;;;13.70;99.90;;;;;;5030402;28;20053;-73
2022/10/02 08:16:46;;;;;;;10.88;2.50;;;13.70;99.90;;;;;;5028672;28;20041;-73
2022/10/02 08:19:16;;;;;;;15.65;2.95;;;13.70;99.90;;;;;;5033629;28;20053;-74
2022/10/02 08:21:47;;;;;;;14.23;3.67;;;13.80;99.90;;;;;;5030416;28;20037;-73
2022/10/02 08:24:21;;;;;;;12.40;3.03;;;13.80;99.90;;;;;;5013140;28;20030;-73
2022/10/02 08:27:07;;;;;;;18.08;3.50;;;13.80;99.90;;;;;;5028639;28;20049;-73
2022/10/02 08:29:40;;;;;;;19.15;3.67;;;13.90;99.90;;;;;;5029176;28;20077;-73
2022/10/02 08:32:10;;;;;;;10.48;3.78;;;13.90;99.90;;;;;;5029608;28;20045;-73
2022/10/02 08:34:37;;;;;;;18.15;4.10;;;14.00;99.90;;;;;;5031575;28;20102;-74
2022/10/02 08:37:22;;;;;;;16.95;2.92;;;14.00;99.90;;;;;;5033237;28;20049;-73
2022/10/02 08:40:23;;;;;;;9.63;2.15;;;14.10;99.90;;;;;;5036892;28;20040;-75
2022/10/02 08:43:16;;;;;;;10.18;2.42;;;14.20;99.90;;;;;;5034063;28;20033;-74
2022/10/02 08:45:50;;;;;;;16.73;2.75;;;14.30;99.90;;;;;;5034285;28;20030;-71
2022/10/02 08:48:35;;;;;;;13.02;3.08;;;14.20;99.90;;;;;;5034836;28;20112;-72
2022/10/02 08:51:39;;;;;;;5.88;2.20;;;14.20;99.90;;;;;;5034799;28;20041;-73
2022/10/02 08:54:41;;;;;;;13.32;2.88;;;14.20;99.90;;;;;;5031384;28;20432;-71
2022/10/02 08:57:29;;;;;;;12.13;2.28;;;14.10;99.90;;;;;;5049950;28;20044;-73
2022/10/02 09:00:29;;;;;;;15.32;1.92;;;14.00;99.90;;;;;;5033961;28;20025;-72
2022/10/02 09:03:14;;;;;;;9.05;2.38;;;14.00;99.90;;;;;;5034536;28;20025;-75
2022/10/02 09:06:05;;;;;;;8.38;2.13;;;14.00;99.90;;;;;;5035209;28;20033;-72
2022/10/02 09:09:10;;;;;;;11.32;1.88;;;13.90;99.90;;;;;;5034758;28;20445;-74
2022/10/02 09:12:00;;;;;;;9.55;1.92;;;14.00;99.90;;;;;;5014850;28;20061;-74
2022/10/02 09:14:32;;;;;;;10.00;2.35;;;14.20;99.90;;;;;;5035641;28;20026;-74
2022/10/02 09:17:15;;;;;;;5.25;1.60;;;14.30;99.90;;;;;;5032601;28;20045;-75
2022/10/02 09:19:53;;;;;;;12.60;1.73;;;14.30;99.90;;;;;;5032986;28;20584;-70
2022/10/02 09:22:46;;;;;;;6.97;1.42;;;14.30;99.90;;;;;;5035828;28;20037;-73
2022/10/02 09:25:15;;;;;;;6.25;1.67;;;14.30;99.90;;;;;;5033781;28;20026;-74
2022/10/02 09:28:16;;;;;;;7.47;1.73;;;14.40;99.90;;;;;;5034072;28;20038;-74
2022/10/02 09:31:19;;;;;;;5.63;1.33;;;14.50;99.90;;;;;;5034502;28;20034;-70
2022/10/02 09:34:18;;;;;;;5.57;1.67;;;14.50;99.90;;;;;;5034170;28;20142;-72
2022/10/02 09:36:56;;;;;;;4.30;1.30;;;14.40;99.90;;;;;;5034584;28;20091;-74
2022/10/02 09:39:44;;;;;;;6.82;1.60;;;14.40;99.90;;;;;;5032820;28;20689;-70
2022/10/02 09:42:25;;;;;;;4.55;1.13;;;14.30;99.90;;;;;;5033301;28;20033;-74
2022/10/02 09:45:06;;;;;;;9.95;2.00;;;14.30;99.90;;;;;;5033744;28;20033;-73
2022/10/02 09:47:53;;;;;;;6.53;1.60;;;14.40;99.90;;;;;;5033125;28;20579;-74
2022/10/02 09:50:49;;;;;;;6.40;1.58;;;14.30;99.90;;;;;;5033191;28;20045;-75
2022/10/02 09:53:54;;;;;;;9.93;1.75;;;14.30;99.90;;;;;;5034847;28;20139;-74
2022/10/02 09:56:35;;;;;;;15.07;2.20;;;14.20;99.90;;;;;;5013808;28;20056;-73
2022/10/02 09:59:16;;;;;;;9.25;1.98;;;14.20;99.90;;;;;;5034312;28;20021;-73
2022/10/02 10:01:59;;;;;;;7.05;1.85;;;14.30;99.90;;;;;;5034189;28;20460;-74
2022/10/02 10:04:57;;;;;;;3.78;1.33;;;14.40;99.90;;;;;;5034069;28;20048;-76
2022/10/02 10:07:51;;;;;;;10.90;2.00;;;14.40;99.90;;;;;;5031587;28;20029;-76
2022/10/02 10:10:48;;;;;;;6.80;1.60;;;14.50;99.90;;;;;;5034164;28;20104;-74
2022/10/02 10:13:47;;;;;;;4.13;1.38;;;14.50;99.90;;;;;;5033952;28;20080;-72
2022/10/02 10:16:30;;;;;;;7.93;2.15;;;14.50;99.90;;;;;;5031936;28;20022;-74
2022/10/02 10:19:14;;;;;;;5.28;1.60;;;14.60;99.90;;;;;;5037481;28;20029;-73
2022/10/02 10:22:38;;;;;;;11.88;1.73;;;14.60;99.90;;;;;;5032512;28;20018;-73
2022/10/02 10:25:27;;;;;;;9.43;1.80;;;14.70;99.90;;;;;;4993869;28;20041;-75
2022/10/02 10:28:14;;;;;;;8.40;1.80;;;14.80;99.90;;;;;;5032417;28;20029;-74
2022/10/02 10:31:08;;;;;;;7.13;1.77;;;14.80;99.90;;;;;;5031855;28;20950;-74
2022/10/02 10:34:08;;;;;;;7.28;1.52;;;14.90;99.90;;;;;;5027779;28;20060;-75
2022/10/02 10:39:58;;;;;;;8.50;1.67;;;15.00;99.90;;;;;;5032082;28;20041;-76
2022/10/02 10:42:37;;;;;;;7.15;1.52;;;15.10;99.90;;;;;;5050826;28;20389;-73
2022/10/02 10:45:26;;;;;;;10.40;1.75;;;15.10;99.90;;;;;;5034276;28;20053;-76
2022/10/02 10:48:11;;;;;;;11.82;2.17;;;15.20;99.90;;;;;;5032942;28;20088;-74
2022/10/02 10:50:45;;;;;;;;;;;15.20;99.90;;;;;;5032182;28;20101;-72
2022/10/02 10:53:54;;;;;;;6.15;1.38;;;15.10;99.90;;;;;;5033893;28;19913;-75
2022/10/02 10:56:35;;;;;;;6.68;1.77;;;15.20;99.90;;;;;;5038455;28;20038;-70
2022/10/02 10:59:23;;;;;;;4.82;1.98;;;15.40;99.90;;;;;;5037241;28;20072;-73
2022/10/02 11:02:31;;;;;;;9.27;1.92;;;15.70;99.90;;;;;;5031452;28;20029;-73
2022/10/02 11:05:06;;;;;;;7.68;1.60;;;15.80;99.90;;;;;;5022636;28;20038;-74
2022/10/02 11:07:36;;;;;;;9.07;2.22;;;16.00;99.90;;;;;;5032290;28;20037;-76
2022/10/02 11:10:29;;;;;;;10.15;1.40;;;16.10;99.90;;;;;;5032541;28;20037;-77
2022/10/02 11:13:14;;;;;;;5.47;1.50;;;16.10;99.90;;;;;;5032318;28;20037;-78
2022/10/02 11:16:12;;;;;;;13.15;1.92;;;16.10;99.90;;;;;;5030988;28;20037;-75
2022/10/02 11:19:09;;;;;;;7.53;1.23;;;16.20;99.90;;;;;;5030001;28;20049;-77
2022/10/02 11:21:57;;;;;;;6.53;1.60;;;16.30;99.90;;;;;;5037912;28;20037;-74
2022/10/02 11:24:44;;;;;;;6.57;2.13;;;16.40;99.90;;;;;;5032171;28;20041;-75
2022/10/02 11:27:33;;;;;;;6.18;1.73;;;16.50;99.90;;;;;;5037751;28;20017;-74
2022/10/02 11:30:25;;;;;;;9.65;2.70;;;16.70;99.90;;;;;;5013545;28;20049;-75
2022/10/02 11:33:53;;;;;;;10.85;2.35;;;16.70;99.90;;;;;;5014636;28;20038;-75
2022/10/02 11:36:46;;;;;;;6.88;1.67;;;16.70;99.90;;;;;;4912400;29;20048;-76
2022/10/02 11:39:40;;;;;;;10.55;2.08;;;16.70;99.90;;;;;;4918323;29;20044;-76
2022/10/02 11:42:25;;;;;;;6.97;1.90;;;16.60;99.90;;;;;;5019702;28;20048;-73
2022/10/02 11:45:28;;;;;;;4.32;1.77;;;16.70;99.90;;;;;;5038592;28;20029;-77
2022/10/02 11:48:14;;;;;;;6.57;1.83;;;16.70;99.90;;;;;;5030993;28;20682;-74
2022/10/02 11:50:40;;;;;;;11.85;2.25;;;16.80;99.90;;;;;;5033773;28;20072;-77
2022/10/02 11:53:36;;;;;;;12.75;2.75;;;16.80;99.90;;;;;;5031707;28;20026;-74
2022/10/02 11:56:11;;;;;;;5.88;1.88;;;16.80;99.90;;;;;;5033293;28;20037;-74
2022/10/02 11:58:56;;;;;;;8.88;1.83;;;16.80;99.90;;;;;;5030663;28;20048;-76
2022/10/02 12:01:44;;;;;;;9.55;2.40;;;16.90;99.90;;;;;;5032021;28;20098;-75
2022/10/02 12:04:40;;;;;;;10.13;2.40;;;16.80;99.90;;;;;;5038988;28;20084;-73
2022/10/02 12:07:34;;;;;;;9.20;2.05;;;16.70;99.90;;;;;;5032065;28;20022;-73
2022/10/02 12:10:17;;;;;;;14.43;2.38;;;16.50;99.90;;;;;;5032147;28;20049;-73
2022/10/02 12:12:57;;;;;;;11.52;2.15;;;16.40;99.90;;;;;;5030178;28;20045;-74
2022/10/02 12:15:33;;;;;;;7.55;2.30;;;16.20;99.90;;;;;;5032100;28;20038;-72
2022/10/02 12:18:14;;;;;;;9.95;2.28;;;16.00;99.90;;;;;;5013999;28;20057;-72
2022/10/02 12:27:44;;;;;;;9.27;1.90;;;15.90;99.90;;;;;;5033758;28;20029;-70
2022/10/02 12:30:13;;;;;;;6.30;1.40;;;15.70;99.90;;;;;;5029788;28;20098;-72
2022/10/02 12:33:18;;;;;;;4.90;1.67;;;15.50;99.90;;;;;;5030897;28;20116;-71
2022/10/02 12:36:04;;;;;;;9.52;1.50;;;15.20;99.90;;;;;;5030661;28;20511;-75
2022/10/02 12:38:54;;;;;;;5.10;1.40;;;14.90;99.90;;;;;;5031205;28;20033;-74
2022/10/02 12:41:20;;;;;;;16.05;2.28;;;14.60;99.90;;;;;;5032389;28;20033;-75
2022/10/02 12:44:10;;;;;;;16.10;2.00;;;14.40;99.90;;;;;;5030339;28;20095;-74
2022/10/02 12:47:04;;;;;;;8.43;2.15;;;14.30;99.90;;;;;;5012575;28;20034;-73
2022/10/02 12:49:49;;;;;;;8.70;2.25;;;14.10;99.90;;;;;;5044825;28;20396;-76
2022/10/02 12:52:22;;;;;;;7.35;2.45;;;14.10;99.90;;;;;;5032484;28;20037;-76
2022/10/02 12:55:09;;;;;;;11.60;2.20;;;14.10;99.90;;;;;;5030684;28;20044;-71
2022/10/02 12:58:12;;;;;;;16.15;2.40;;;14.00;99.90;;;;;;5029262;28;20430;-75
2022/10/02 13:00:50;;;;;;;7.43;2.10;;;14.00;99.90;;;;;;5031168;28;20029;-75
2022/10/02 13:03:36;;;;;;;16.15;2.83;;;13.90;99.90;;;;;;5031185;28;20076;-73
2022/10/02 13:06:24;;;;;;;15.60;3.70;;;13.90;99.90;;;;;;5036949;28;20054;-73
2022/10/02 13:09:07;;;;;;;14.77;2.67;;;14.00;99.90;;;;;;5031271;28;20445;-75
2022/10/02 13:11:41;;;;;;;22.52;6.07;;;14.00;99.90;;;;;;5027702;28;20104;-75
2022/10/02 13:14:15;;;;;;;10.05;3.00;;;14.00;99.90;;;;;;5034625;28;20069;-74
2022/10/02 13:16:45;;;;;;;10.70;3.45;;;14.00;99.90;;;;;;5036019;28;20026;-75
2022/10/02 13:19:43;;;;;;;12.40;3.13;;;13.90;99.90;;;;;;5043935;28;20065;-74
2022/10/02 13:22:13;;;;;;;15.13;4.07;;;13.90;99.90;;;;;;5013401;28;20037;-73
2022/10/02 13:25:10;;;;;;;11.45;3.35;;;13.90;99.90;;;;;;5040203;28;20029;-71
2022/10/02 13:28:01;;;;;;;16.27;3.53;;;14.10;99.90;;;;;;5048885;28;20022;-73
2022/10/02 13:30:54;;;;;;;27.70;3.38;;;14.60;99.90;;;;;;5039809;28;20096;-74
2022/10/02 13:33:46;;;;;;;20.25;3.05;;;15.20;99.90;;;;;;4994448;28;20040;-74
2022/10/02 13:36:19;;;;;;;12.80;2.63;;;15.70;99.90;;;;;;5031995;28;20052;-72
2022/10/02 13:38:55;;;;;;;8.00;2.03;;;16.00;99.90;;;;;;5030828;28;20039;-72
2022/10/02 13:41:21;;;;;;;11.48;2.58;;;16.30;99.90;;;;;;5034676;28;20032;-73
2022/10/02 13:44:06;;;;;;;9.80;2.10;;;16.60;99.90;;;;;;5040305;28;20203;-73
2022/10/02 13:47:00;;;;;;;11.48;1.95;;;17.10;99.90;;;;;;5033715;28;20491;-73
2022/10/02 13:50:04;;;;;;;7.43;2.20;;;17.50;99.90;;;;;;5033561;28;20017;-74
2022/10/02 13:52:45;;;;;;;9.10;2.00;;;17.60;99.90;;;;;;5048654;28;20576;-73
2022/10/02 13:55:21;;;;;;;5.30;1.65;;;17.60;99.90;;;;;;5037631;28;20048;-73
2022/10/02 13:58:24;;;;;;;10.90;2.55;;;17.20;99.90;;;;;;5037025;28;20034;-70
2022/10/02 14:01:27;;;;;;;11.00;1.70;;;17.00;99.90;;;;;;5034206;28;20053;-75
2022/10/02 14:04:12;;;;;;;16.35;2.05;;;16.80;99.90;;;;;;5033374;28;20504;-73
2022/10/02 14:06:44;;;;;;;8.60;2.00;;;16.80;99.90;;;;;;5032970;28;20465;-73
2022/10/02 14:09:23;;;;;;;11.80;2.45;;;16.40;99.90;;;;;;5040089;28;20029;-72
2022/10/02 14:12:03;;;;;;;8.88;2.00;;;16.10;99.90;;;;;;5035123;28;20449;-74
2022/10/02 14:14:41;;;;;;;6.32;1.83;;;16.00;99.90;;;;;;5025515;28;21484;-73
2022/10/02 14:17:34;;;;;;;9.20;2.03;;;16.40;99.90;;;;;;5032926;28;20017;-74
2022/10/02 14:20:15;;;;;;;12.52;1.88;;;17.10;99.90;;;;;;5032662;28;20025;-76
2022/10/02 14:23:21;;;;;;;24.65;3.00;;;17.50;99.90;;;;;;5048065;28;20037;-73
2022/10/02 14:26:01;;;;;;;11.32;2.25;;;17.90;99.90;;;;;;5033077;28;20458;-72
2022/10/02 14:28:50;;;;;;;18.08;3.08;;;18.20;99.90;;;;;;5038496;28;20097;-76
2022/10/02 14:32:01;;;;;;;17.45;3.00;;;18.40;99.90;;;;;;5047021;28;20044;-75
2022/10/02 14:35:07;;;;;;;15.10;2.42;;;18.10;99.90;;;;;;5027675;28;20056;-74
2022/10/02 14:38:08;;;;;;;15.02;2.50;;;17.60;99.90;;;;;;5033514;28;20085;-74
2022/10/02 14:40:56;;;;;;;12.18;2.33;;;17.50;99.90;;;;;;5032512;28;20075;-72
2022/10/02 14:43:46;;;;;;;11.48;2.30;;;17.70;99.90;;;;;;5032162;28;20435;-71
2022/10/02 14:46:48;;;;;;;20.40;3.38;;;17.80;99.90;;;;;;5033624;28;20034;-74
2022/10/02 14:49:52;;;;;;;7.97;2.22;;;17.90;99.90;;;;;;4980803;28;20035;-73
2022/10/02 14:52:41;;;;;;;13.73;2.30;;;18.20;99.90;;;;;;4992622;28;20128;-73
2022/10/02 14:55:21;;;;;;;14.70;2.22;;;18.20;99.90;;;;;;5033004;28;20033;-70
2022/10/02 14:58:12;;;;;;;10.65;2.47;;;18.40;99.90;;;;;;5033762;28;20037;-71
2022/10/02 15:00:58;;;;;;;10.48;2.45;;;18.90;99.90;;;;;;5034314;28;20049;-76
2022/10/02 15:03:59;;;;;;;9.73;2.42;;;19.60;99.90;;;;;;5032629;28;20347;-73
2022/10/02 15:06:50;;;;;;;10.57;2.65;;;20.20;99.90;;;;;;5031526;28;20133;-73
2022/10/02 15:09:26;;;;;;;11.25;1.88;;;20.30;99.90;;;;;;5032819;28;20025;-76
2022/10/02 15:12:12;;;;;;;6.57;2.08;;;20.20;99.90;;;;;;5032827;28;20034;-74
2022/10/02 15:14:52;;;;;;;13.27;2.25;;;20.00;99.90;;;;;;5032686;28;20033;-75
2022/10/02 15:17:56;;;;;;;12.25;2.25;;;19.70;99.90;;;;;;5029879;28;20033;-75
2022/10/02 15:20:46;;;;;;;13.85;1.75;;;19.70;99.90;;;;;;5008492;28;20072;-76
2022/10/02 15:23:23;;;;;;;10.55;1.52;;;19.80;99.90;;;;;;5032631;28;20535;-74
2022/10/02 15:25:57;;;;;;;20.23;2.53;;;19.70;99.90;;;;;;5032699;28;20018;-75
2022/10/02 15:28:26;;;;;;;10.38;2.22;;;19.60;99.90;;;;;;5032867;28;20044;-73
2022/10/02 15:31:00;;;;;;;11.52;1.85;;;19.20;99.90;;;;;;5038867;28;20041;-75
2022/10/02 15:33:47;;;;;;;;;;;19.10;99.90;;;;;;5032799;28;20478;-73
2022/10/02 15:36:12;;;;;;;9.25;2.17;;;18.90;99.90;;;;;;5032379;28;19924;-74
2022/10/02 15:38:50;;;;;;;8.98;2.10;;;18.90;99.90;;;;;;5032230;28;20030;-75
2022/10/02 15:41:27;;;;;;;7.97;2.15;;;18.90;99.90;;;;;;5034340;28;20425;-73
2022/10/02 15:44:05;;;;;;;8.90;2.63;;;18.50;99.90;;;;;;5037916;28;20033;-74
2022/10/02 15:46:50;;;;;;;18.15;2.90;;;18.10;99.90;;;;;;5034852;28;20026;-75
2022/10/02 15:49:54;;;;;;;11.52;2.75;;;17.70;99.90;;;;;;5033663;28;20043;-72
2022/10/02 15:52:59;;;;;;;13.70;2.90;;;17.20;99.90;;;;;;5032808;28;20038;-74
2022/10/02 15:55:33;;;;;;;17.83;3.05;;;16.90;99.90;;;;;;4996330;28;20048;-74
2022/10/02 15:58:11;;;;;;;12.90;1.70;;;16.50;99.90;;;;;;5033925;28;20101;-73
2022/10/02 16:01:01;;;;;;;8.30;3.00;;;16.20;99.90;;;;;;5031817;28;20030;-74
2022/10/02 16:03:39;;;;;;;19.67;3.80;;;16.00;99.90;;;;;;5029205;28;20033;-73
2022/10/02 16:06:44;;;;;;;19.05;3.63;;;15.90;99.90;;;;;;5030730;28;20033;-72
2022/10/02 16:09:31;;;;;;;14.20;3.42;;;15.80;99.90;;;;;;5031795;28;20888;-73
2022/10/02 16:12:17;;;;;;;13.68;3.60;;;15.80;99.90;;;;;;5031788;28;20045;-74
2022/10/02 16:15:06;;;;;;;18.33;3.28;;;15.70;99.90;;;;;;5001490;28;20045;-72
2022/10/02 16:17:38;;;;;;;9.30;2.63;;;15.60;99.90;;;;;;5030358;28;20119;-74
2022/10/02 16:20:06;;;;;;;11.27;3.45;;;15.50;99.90;;;;;;5013089;28;20017;-72
2022/10/02 16:22:49;;;;;;;10.75;3.20;;;15.40;99.90;;;;;;5031663;28;20045;-74
2022/10/02 16:25:59;;;;;;;7.45;2.50;;;15.30;99.90;;;;;;5032445;28;20044;-74
2022/10/02 16:28:47;;;;;;;9.18;2.80;;;15.20;99.90;;;;;;5024495;28;20065;-75
2022/10/02 16:31:34;;;;;;;7.53;2.58;;;15.00;99.90;;;;;;5031231;28;20049;-72
2022/10/02 16:34:49;;;;;;;11.18;2.08;;;15.00;99.90;;;;;;5037504;28;20034;-72
2022/10/02 16:37:18;;;;;;;8.65;2.53;;;14.90;99.90;;;;;;5024227;28;20524;-76
2022/10/02 16:40:27;;;;;;;12.98;2.60;;;14.80;99.90;;;;;;5037837;28;20030;-73
2022/10/02 16:43:21;;;;;;;20.55;2.60;;;14.70;99.90;;;;;;5030380;28;20050;-73
2022/10/02 16:46:02;;;;;;;13.02;2.58;;;14.70;99.90;;;;;;5031688;28;20052;-74
2022/10/02 16:48:49;;;;;;;14.38;2.50;;;14.60;99.90;;;;;;5032875;28;20042;-73
2022/10/02 16:51:15;;;;;;;8.65;2.20;;;14.60;99.90;;;;;;5030441;28;20037;-70
2022/10/02 16:54:02;;;;;;;16.20;3.63;;;14.50;99.90;;;;;;5033673;28;20029;-73
2022/10/02 16:56:41;;;;;;;11.82;2.53;;;14.50;99.90;;;;;;5034032;28;20045;-75
2022/10/02 16:59:16;;;;;;;21.63;3.47;;;14.40;99.90;;;;;;5034351;28;20037;-72
2022/10/02 17:01:51;;;;;;;15.25;2.90;;;14.40;99.90;;;;;;5035037;28;20504;-73
2022/10/02 17:04:50;;;;;;;17.90;3.75;;;14.30;99.90;;;;;;5040875;28;20102;-75
2022/10/02 17:07:34;;;;;;;14.48;2.25;;;14.20;99.90;;;;;;5036442;28;20061;-75
2022/10/02 17:10:28;;;;;;;15.07;2.58;;;14.20;99.90;;;;;;5035474;28;20022;-73
2022/10/02 17:13:15;;;;;;;24.13;2.78;;;14.10;99.90;;;;;;5033737;28;20029;-74
2022/10/02 17:16:11;;;;;;;10.40;2.25;;;14.00;99.90;;;;;;5035913;28;20412;-74
2022/10/02 17:18:56;;;;;;;20.27;2.70;;;14.00;99.90;;;;;;5035838;28;20014;-74
2022/10/02 17:21:37;;;;;;;14.82;2.80;;;14.00;99.90;;;;;;5034769;28;20013;-75
2022/10/02 17:24:31;;;;;;;11.43;2.22;;;13.90;99.90;;;;;;5033631;28;20038;-74
2022/10/02 17:27:34;;;;;;;15.00;2.75;;;13.90;99.90;;;;;;5036142;28;20047;-75
2022/10/02 17:30:23;;;;;;;28.83;3.03;;;13.90;99.90;;;;;;5035383;28;20431;-75
2022/10/02 17:33:14;;;;;;;13.18;2.80;;;13.90;99.90;;;;;;5034328;28;20040;-72
2022/10/02 17:35:55;;;;;;;13.75;2.53;;;13.90;99.90;;;;;;5035159;28;20030;-77
2022/10/02 17:38:22;;;;;;;18.52;3.47;;;13.90;99.90;;;;;;5036551;28;20025;-74
2022/10/02 17:40:58;;;;;;;18.45;2.90;;;13.80;99.90;;;;;;5050150;28;20064;-71
2022/10/02 17:43:38;;;;;;;14.20;3.20;;;13.80;99.90;;;;;;5033615;28;20029;-70
2022/10/02 17:46:28;;;;;;;12.50;3.10;;;13.80;99.90;;;;;;5034976;28;20033;-75
2022/10/02 17:49:03;;;;;;;11.40;2.70;;;13.80;99.90;;;;;;5035666;28;20049;-76
2022/10/02 17:51:38;;;;;;;13.07;2.75;;;13.80;99.90;;;;;;5034064;28;20030;-74
2022/10/02 17:57:18;;;;;;;10.60;2.72;;;13.70;99.90;;;;;;5034081;28;20966;-75
2022/10/02 18:00:07;;;;;;;12.23;2.67;;;13.70;99.90;;;;;;5032863;28;20022;-76
2022/10/02 18:02:35;;;;;;;11.00;2.72;;;13.60;99.90;;;;;;5035630;28;20034;-74
2022/10/02 18:05:16;;;;;;;12.88;3.17;;;13.60;99.90;;;;;;5034069;28;20037;-73
2022/10/02 18:08:07;;;;;;;14.88;3.53;;;13.50;99.90;;;;;;5032922;28;20076;-73
2022/10/02 18:10:47;;;;;;;10.15;2.95;;;13.50;99.90;;;;;;5033113;28;20432;-75
2022/10/02 18:13:19;;;;;;;9.63;2.90;;;13.50;99.90;;;;;;5033862;28;20466;-75
2022/10/02 18:15:53;;;;;;;16.40;2.83;;;13.50;99.90;;;;;;5033887;28;20030;-76
2022/10/02 18:18:28;;;;;;;15.05;2.97;;;13.40;99.90;;;;;;5033461;28;20394;-76
2022/10/02 18:21:16;;;;;;;11.90;3.17;;;13.40;99.90;;;;;;5034269;28;20039;-75
2022/10/02 18:24:27;;;;;;;10.70;2.72;;;13.40;99.90;;;;;;5047954;28;20026;-75
2022/10/02 18:27:25;;;;;;;14.90;3.03;;;13.40;99.90;;;;;;5031068;28;20490;-75
2022/10/02 18:30:09;;;;;;;13.40;2.83;;;13.30;99.90;;;;;;5046828;28;20774;-76
2022/10/02 18:32:57;;;;;;;13.13;2.77;;;13.30;99.90;;;;;;5033626;28;20030;-75
2022/10/02 18:35:29;;;;;;;17.15;2.75;;;13.30;99.90;;;;;;5033825;28;20171;-76
2022/10/02 18:38:15;;;;;;;12.93;2.47;;;13.30;99.90;;;;;;5033086;28;20029;-75
2022/10/02 18:40:59;;;;;;;16.17;3.33;;;13.20;99.90;;;;;;5032471;28;20033;-75
2022/10/02 18:43:33;;;;;;;15.60;3.40;;;13.20;99.90;;;;;;5032517;28;20025;-76
2022/10/02 18:46:19;;;;;;;16.38;3.42;;;13.20;99.90;;;;;;5034614;28;20032;-75
2022/10/02 18:49:02;;;;;;;16.92;3.75;;;13.20;99.90;;;;;;5033072;28;20057;-74
2022/10/02 18:51:58;;;;;;;12.32;3.22;;;13.20;99.90;;;;;;5032733;28;20038;-74
2022/10/02 18:54:33;;;;;;;12.00;3.33;;;13.20;99.90;;;;;;5035015;28;20033;-74
2022/10/02 18:57:07;;;;;;;9.48;2.95;;;13.20;99.90;;;;;;5034882;28;20484;-73
2022/10/02 19:00:05;;;;;;;14.68;3.70;;;13.20;99.90;;;;;;5030663;28;20042;-74
2022/10/02 19:02:58;;;;;;;13.43;2.53;;;13.20;99.90;;;;;;5033110;28;20026;-77
2022/10/02 19:05:53;;;;;;;11.70;2.60;;;13.10;99.90;;;;;;5039621;28;20057;-75
2022/10/02 19:09:06;;;;;;;20.00;3.40;;;13.10;99.90;;;;;;5030785;28;20072;-74
2022/10/02 19:11:40;;;;;;;6.15;2.08;;;13.10;99.90;;;;;;5027948;28;20540;-74
2022/10/02 19:14:32;;;;;;;15.52;2.65;;;13.10;99.90;;;;;;5032229;28;20041;-75
2022/10/02 19:17:07;;;;;;;14.93;3.25;;;13.00;99.90;;;;;;5032492;28;20030;-76
2022/10/02 19:19:35;;;;;;;18.80;3.28;;;13.00;99.90;;;;;;5032709;28;20068;-76
2022/10/02 19:22:16;;;;;;;11.82;2.88;;;13.00;99.90;;;;;;5037248;28;20026;-74
2022/10/02 19:24:45;;;;;;;12.10;3.28;;;12.90;99.90;;;;;;5032316;28;20022;-74
2022/10/02 19:27:37;;;;;;;11.63;2.90;;;12.90;99.90;;;;;;5038726;28;20128;-76
2022/10/02 19:30:31;;;;;;;13.88;2.72;;;12.80;99.90;;;;;;5031596;28;20053;-74
2022/10/02 19:33:10;;;;;;;16.67;2.77;;;12.80;99.90;;;;;;5028880;28;20046;-74
2022/10/02 19:35:42;;;;;;;12.98;2.80;;;12.70;99.90;;;;;;5037505;28;20045;-75
2022/10/02 19:38:29;;;;;;;13.07;2.83;;;12.70;99.90;;;;;;5048352;28;20105;-75
2022/10/02 19:40:57;;;;;;;8.30;2.38;;;12.70;99.90;;;;;;5038288;28;20048;-74
2022/10/02 19:43:41;;;;;;;11.85;2.60;;;12.70;99.90;;;;;;5032020;28;20018;-76
2022/10/02 19:46:09;;;;;;;14.55;2.90;;;12.60;99.90;;;;;;5031163;28;20474;-73
2022/10/02 19:48:36;;;;;;;28.58;3.83;;;12.60;99.90;;;;;;5031366;28;20045;-76
2022/10/02 19:51:06;;;;;;;21.25;3.55;;;12.60;99.90;;;;;;5032067;28;20033;-76
2022/10/02 19:53:43;;;;;;;18.42;3.25;;;12.50;99.90;;;;;;5031855;28;20058;-76
2022/10/02 19:56:11;;;;;;;14.40;3.05;;;12.40;99.90;;;;;;5031526;28;20065;-76
2022/10/02 19:58:57;;;;;;;25.38;3.20;;;12.50;99.90;;;;;;5031414;28;20154;-75
2022/10/02 20:01:27;;;;;;;12.57;2.03;;;12.40;99.90;;;;;;5032278;28;20085;-76
2022/10/02 20:03:56;;;;;;;21.30;3.55;;;12.40;99.90;;;;;;5031956;28;20026;-73
2022/10/02 20:06:25;;;;;;;9.45;2.55;;;12.40;99.90;;;;;;5031684;28;20024;-78
2022/10/02 20:09:11;;;;;;;16.65;3.03;;;12.30;99.90;;;;;;5031496;28;20401;-75
2022/10/02 20:11:43;;;;;;;12.35;2.85;;;12.30;99.90;;;;;;5030755;28;20029;-74